Time;durP1;ratioP1;P1;durP2;ratioP2;P2;SDS_P1;SDS_P2;PMS_P1;PMS_P2;Temp;Humidity;BMP_temperature;BMP_pressure;BME280_temperature;BME280_humidity;BME280_pressure;Samples;Min_cycle;Max_cycle;Signal;HPM_P1;HPM_P2
2023/03/05 00:01:55;;;;;;;28.70;15.13;;;3.30;1.00;;;;;;7382820;19;20059;-70
2023/03/05 00:04:25;;;;;;;27.33;14.30;;;3.30;1.00;;;;;;7360204;19;20359;-71
2023/03/05 00:06:55;;;;;;;32.05;14.88;;;3.30;1.00;;;;;;7361393;19;20021;-71
2023/03/05 00:09:27;;;;;;;31.63;14.93;;;3.40;1.00;;;;;;7358076;19;20509;-71
2023/03/05 00:11:57;;;;;;;29.52;13.45;;;3.30;1.00;;;;;;7360891;19;20062;-72
2023/03/05 00:14:26;;;;;;;35.17;14.52;;;3.30;1.00;;;;;;7360537;19;20014;-71
2023/03/05 00:16:56;;;;;;;31.10;13.60;;;3.30;1.00;;;;;;7381775;19;20018;-71
2023/03/05 00:19:26;;;;;;;35.13;15.15;;;3.40;1.00;;;;;;7357663;19;20096;-71
2023/03/05 00:21:56;;;;;;;31.40;14.30;;;3.40;1.00;;;;;;7347060;19;20006;-71
2023/03/05 00:24:28;;;;;;;31.42;14.55;;;3.40;1.00;;;;;;7359975;19;20470;-71
2023/03/05 00:26:58;;;;;;;30.88;14.25;;;3.30;1.00;;;;;;7382611;19;20011;-71
2023/03/05 00:29:28;;;;;;;31.98;14.50;;;3.30;1.00;;;;;;7383000;19;20011;-71
2023/03/05 00:32:00;;;;;;;33.28;15.55;;;3.30;1.00;;;;;;7367188;19;20010;-71
2023/03/05 00:34:30;;;;;;;34.25;14.90;;;3.30;1.00;;;;;;7368002;19;20639;-71
2023/03/05 00:37:00;;;;;;;32.72;13.98;;;3.30;1.00;;;;;;7368686;19;20222;-72
2023/03/05 00:39:32;;;;;;;26.83;13.50;;;3.30;1.00;;;;;;7365729;19;20014;-72
2023/03/05 00:42:02;;;;;;;32.00;13.82;;;3.30;1.00;;;;;;7379702;19;20014;-72
2023/03/05 00:44:32;;;;;;;32.63;14.77;;;3.30;1.00;;;;;;7388690;19;20018;-72
2023/03/05 00:47:02;;;;;;;31.38;13.93;;;3.30;1.00;;;;;;7367095;19;20477;-72
2023/03/05 00:49:31;;;;;;;35.65;15.25;;;3.30;1.00;;;;;;7364291;19;20374;-70
2023/03/05 00:52:01;;;;;;;31.17;13.15;;;3.30;1.00;;;;;;7367327;19;20014;-71
2023/03/05 00:54:33;;;;;;;33.03;13.82;;;3.30;1.00;;;;;;7366915;19;20014;-71
2023/03/05 00:57:04;;;;;;;34.42;15.05;;;3.30;1.00;;;;;;7367674;19;20018;-71
2023/03/05 00:59:34;;;;;;;26.70;13.05;;;3.20;1.00;;;;;;7384826;19;20488;-71
2023/03/05 01:02:04;;;;;;;30.92;13.23;;;3.20;1.00;;;;;;7365754;19;20024;-72
2023/03/05 01:04:34;;;;;;;28.92;13.77;;;3.30;1.00;;;;;;7366941;19;20010;-72
2023/03/05 01:07:04;;;;;;;31.27;13.80;;;3.20;1.00;;;;;;7366674;19;20018;-72
2023/03/05 01:09:36;;;;;;;30.25;13.57;;;3.20;1.00;;;;;;7364071;19;20486;-72
2023/03/05 01:12:07;;;;;;;28.33;12.73;;;3.20;1.00;;;;;;7366418;19;20022;-72
2023/03/05 01:14:37;;;;;;;32.88;14.18;;;3.20;1.00;;;;;;7387924;19;20019;-72
2023/03/05 01:17:07;;;;;;;34.08;14.50;;;3.20;1.00;;;;;;7366001;19;20011;-72
2023/03/05 01:19:37;;;;;;;29.75;12.77;;;3.20;1.00;;;;;;7365057;19;20478;-72
2023/03/05 01:22:07;;;;;;;32.60;13.27;;;3.20;1.00;;;;;;7367064;19;20025;-72
2023/03/05 01:24:39;;;;;;;33.33;13.07;;;3.20;1.00;;;;;;7366218;19;20014;-72
2023/03/05 01:27:09;;;;;;;33.92;13.68;;;3.10;1.00;;;;;;7391089;19;20014;-72
2023/03/05 01:29:39;;;;;;;34.10;13.13;;;3.10;1.00;;;;;;7393417;19;20014;-72
2023/03/05 01:32:09;;;;;;;31.88;13.88;;;3.10;1.00;;;;;;7392746;19;20025;-72
2023/03/05 01:34:40;;;;;;;30.42;13.45;;;3.10;1.00;;;;;;7393795;19;20014;-72
2023/03/05 01:37:10;;;;;;;36.55;13.45;;;3.10;1.00;;;;;;7393829;19;20491;-72
2023/03/05 01:39:43;;;;;;;33.38;13.75;;;3.00;1.00;;;;;;7390897;19;20014;-72
2023/03/05 01:42:13;;;;;;;28.20;12.55;;;3.10;1.00;;;;;;7390971;19;20027;-72
2023/03/05 01:45:01;;;;;;;33.30;12.32;;;3.00;1.00;;;;;;7393477;19;20015;-72
2023/03/05 01:47:31;;;;;;;27.95;12.15;;;3.00;1.00;;;;;;7393430;19;20010;-72
2023/03/05 01:50:02;;;;;;;34.20;13.00;;;3.00;1.00;;;;;;7390188;19;20018;-72
2023/03/05 01:52:34;;;;;;;32.35;13.18;;;3.10;1.00;;;;;;7392279;19;20014;-72
2023/03/05 01:55:10;;;;;;;40.08;13.50;;;3.10;1.00;;;;;;7393272;19;20562;-72
2023/03/05 01:57:45;;;;;;;31.77;12.25;;;3.10;1.00;;;;;;7393317;19;20366;-72
2023/03/05 02:00:16;;;;;;;;;;;3.10;1.00;;;;;;7389765;19;20043;-72
2023/03/05 02:02:49;;;;;;;31.65;12.23;;;3.10;1.00;;;;;;7393096;19;19918;-72
2023/03/05 02:05:25;;;;;;;35.67;13.50;;;3.20;1.00;;;;;;7392762;19;20098;-72
2023/03/05 02:07:56;;;;;;;27.52;12.85;;;3.10;1.00;;;;;;7350534;19;20014;-72
2023/03/05 02:10:32;;;;;;;29.48;11.90;;;3.20;1.00;;;;;;7382746;19;20010;-71
2023/03/05 02:13:06;;;;;;;32.38;11.95;;;3.10;1.00;;;;;;7387375;19;20018;-72
2023/03/05 02:15:36;;;;;;;29.95;12.85;;;3.10;1.00;;;;;;7365720;19;20028;-72
2023/03/05 02:18:07;;;;;;;31.08;12.23;;;3.20;1.00;;;;;;7364980;19;20053;-72
2023/03/05 02:20:46;;;;;;;29.77;11.90;;;3.20;1.00;;;;;;7361787;19;20014;-70
2023/03/05 02:23:21;;;;;;;31.67;13.05;;;3.20;1.00;;;;;;7364701;19;20023;-70
2023/03/05 02:25:51;;;;;;;28.40;11.10;;;3.10;1.00;;;;;;7363392;19;20018;-70
2023/03/05 02:28:27;;;;;;;34.50;12.23;;;3.10;1.00;;;;;;7363026;19;20352;-70
2023/03/05 02:30:57;;;;;;;25.75;11.45;;;3.10;1.00;;;;;;7382780;19;20010;-71
2023/03/05 02:33:27;;;;;;;29.13;12.70;;;3.10;1.00;;;;;;7363697;19;20018;-71
2023/03/05 02:35:57;;;;;;;26.10;11.38;;;3.10;1.00;;;;;;7363980;19;20031;-71
2023/03/05 02:38:29;;;;;;;27.63;11.93;;;3.10;1.00;;;;;;7361446;19;20702;-70
2023/03/05 02:40:59;;;;;;;25.88;11.50;;;3.10;1.00;;;;;;7363741;19;20441;-70
2023/03/05 02:43:29;;;;;;;26.42;11.38;;;3.10;1.00;;;;;;7364006;19;20021;-70
2023/03/05 02:45:58;;;;;;;30.45;11.90;;;3.10;1.00;;;;;;7384855;19;20039;-71
2023/03/05 02:48:28;;;;;;;29.83;12.23;;;3.10;1.00;;;;;;7362500;19;20841;-71
2023/03/05 02:50:59;;;;;;;27.10;11.57;;;3.20;1.00;;;;;;7362411;19;20054;-70
2023/03/05 02:53:31;;;;;;;23.67;11.35;;;3.20;1.00;;;;;;7362448;19;20014;-71
2023/03/05 02:56:01;;;;;;;28.00;11.63;;;3.20;1.00;;;;;;7363271;19;20017;-71
2023/03/05 02:58:31;;;;;;;26.58;11.48;;;3.10;1.00;;;;;;7362257;19;20077;-71
2023/03/05 03:01:01;;;;;;;27.10;10.80;;;3.10;1.00;;;;;;7384111;19;20018;-71
2023/03/05 03:03:31;;;;;;;27.88;11.68;;;3.10;1.00;;;;;;7362576;19;20441;-72
2023/03/05 03:06:01;;;;;;;28.73;11.50;;;3.10;1.00;;;;;;7362310;19;20486;-71
2023/03/05 03:08:33;;;;;;;29.13;11.55;;;3.10;1.00;;;;;;7363142;19;20018;-72
2023/03/05 03:11:08;;;;;;;27.23;11.40;;;3.10;1.00;;;;;;7389704;19;20014;-72
2023/03/05 03:13:38;;;;;;;22.98;9.82;;;3.10;1.00;;;;;;7389531;19;20024;-72
2023/03/05 03:16:10;;;;;;;30.17;11.40;;;3.10;1.00;;;;;;7389334;19;20020;-72
2023/03/05 03:18:40;;;;;;;20.83;10.35;;;3.20;1.00;;;;;;7389228;19;20078;-71
2023/03/05 03:21:10;;;;;;;27.98;11.15;;;3.20;1.00;;;;;;7389398;19;20021;-72
2023/03/05 03:23:42;;;;;;;28.08;10.80;;;3.20;1.00;;;;;;7389058;19;20014;-71
2023/03/05 03:26:12;;;;;;;21.55;9.07;;;3.10;1.00;;;;;;7390172;19;20007;-72
2023/03/05 03:28:42;;;;;;;22.33;9.85;;;3.10;1.00;;;;;;7389654;19;20011;-72
2023/03/05 03:31:12;;;;;;;24.77;10.52;;;3.10;1.00;;;;;;7387738;19;20025;-72
2023/03/05 03:33:42;;;;;;;27.30;11.30;;;3.10;1.00;;;;;;7390492;19;20020;-71
2023/03/05 03:36:12;;;;;;;28.17;10.45;;;3.00;1.00;;;;;;7389781;19;20018;-71
2023/03/05 03:38:44;;;;;;;30.75;10.90;;;3.00;1.00;;;;;;7388568;19;20102;-72
2023/03/05 03:41:14;;;;;;;24.17;10.68;;;3.10;1.00;;;;;;7389312;19;20018;-72
2023/03/05 03:43:44;;;;;;;23.23;10.75;;;3.10;1.00;;;;;;7389794;19;20035;-72
2023/03/05 03:46:13;;;;;;;24.30;10.35;;;3.10;1.00;;;;;;7389191;19;20534;-72
2023/03/05 03:48:43;;;;;;;33.22;10.48;;;3.10;1.00;;;;;;7388328;19;20026;-72
2023/03/05 03:51:13;;;;;;;31.73;9.70;;;3.10;1.00;;;;;;7389187;19;20452;-72
2023/03/05 03:53:45;;;;;;;26.70;9.73;;;3.10;1.00;;;;;;7389937;19;20010;-72
2023/03/05 03:56:15;;;;;;;25.65;10.55;;;3.10;1.00;;;;;;7389344;19;20014;-72
2023/03/05 03:58:46;;;;;;;28.90;10.07;;;3.10;1.00;;;;;;7387788;19;20021;-72
2023/03/05 04:01:15;;;;;;;28.67;9.63;;;3.10;1.00;;;;;;7388906;19;20038;-71
2023/03/05 04:03:45;;;;;;;22.50;10.45;;;3.10;1.00;;;;;;7388911;19;20011;-71
2023/03/05 04:06:16;;;;;;;26.05;10.13;;;3.10;1.00;;;;;;7387678;19;20018;-71
2023/03/05 04:08:48;;;;;;;24.35;10.30;;;3.00;1.00;;;;;;7387807;19;20018;-72
2023/03/05 04:11:19;;;;;;;26.08;10.55;;;3.00;1.00;;;;;;7388399;19;20482;-72
2023/03/05 04:13:49;;;;;;;24.13;10.23;;;3.00;1.00;;;;;;7386784;19;20047;-70
2023/03/05 04:16:19;;;;;;;28.27;10.50;;;3.00;1.00;;;;;;7388670;19;20025;-72
2023/03/05 04:18:49;;;;;;;23.80;9.95;;;3.00;1.00;;;;;;7387116;19;20018;-70
2023/03/05 04:21:19;;;;;;;27.80;10.27;;;3.00;1.00;;;;;;7388002;19;20035;-70
2023/03/05 04:23:51;;;;;;;28.80;9.70;;;3.00;1.00;;;;;;7388449;19;20010;-70
2023/03/05 04:26:21;;;;;;;21.40;9.85;;;3.00;1.00;;;;;;7354738;19;20003;-71
2023/03/05 04:28:51;;;;;;;25.27;10.15;;;3.00;1.00;;;;;;7381821;19;20713;-71
2023/03/05 04:31:22;;;;;;;26.60;10.52;;;2.90;1.00;;;;;;7360513;19;20014;-71
2023/03/05 04:33:52;;;;;;;22.40;9.98;;;3.00;1.00;;;;;;7360405;19;20014;-71
2023/03/05 04:36:22;;;;;;;28.73;10.07;;;2.90;1.00;;;;;;7359737;19;20021;-71
2023/03/05 04:38:54;;;;;;;26.15;10.77;;;2.90;1.00;;;;;;7359000;19;20015;-71
2023/03/05 04:41:24;;;;;;;25.48;10.30;;;2.90;1.00;;;;;;7359544;19;20478;-71
2023/03/05 04:43:54;;;;;;;26.52;10.02;;;2.90;1.00;;;;;;7381835;19;20078;-71
2023/03/05 04:46:23;;;;;;;26.23;10.48;;;2.90;1.00;;;;;;7359713;19;20521;-71
2023/03/05 04:48:53;;;;;;;25.77;10.85;;;2.90;1.00;;;;;;7357603;19;20025;-71
2023/03/05 04:51:23;;;;;;;25.10;10.10;;;2.90;1.00;;;;;;7359303;19;20541;-71
2023/03/05 04:53:55;;;;;;;20.90;9.65;;;2.90;1.00;;;;;;7360432;19;20011;-71
2023/03/05 04:56:25;;;;;;;24.05;10.25;;;2.90;1.00;;;;;;7360034;19;21005;-71
2023/03/05 04:58:55;;;;;;;28.95;10.20;;;2.90;1.00;;;;;;7379828;19;20025;-71
2023/03/05 05:01:25;;;;;;;26.90;10.30;;;2.90;1.00;;;;;;7358436;19;20022;-71
2023/03/05 05:03:55;;;;;;;22.58;9.57;;;2.90;1.00;;;;;;7358741;19;20371;-71
2023/03/05 05:06:24;;;;;;;23.05;9.10;;;2.90;1.00;;;;;;7360058;19;20502;-71
2023/03/05 05:08:57;;;;;;;25.92;10.18;;;2.90;1.00;;;;;;7357361;19;20010;-71
2023/03/05 05:11:27;;;;;;;25.90;11.43;;;2.90;1.00;;;;;;7359540;19;20006;-71
2023/03/05 05:13:57;;;;;;;21.75;10.65;;;2.90;1.00;;;;;;7381301;19;20018;-71
2023/03/05 05:16:26;;;;;;;29.60;10.73;;;2.90;1.00;;;;;;7362222;19;20015;-71
2023/03/05 05:18:56;;;;;;;24.23;9.18;;;2.90;1.00;;;;;;7364681;19;20011;-71
2023/03/05 05:21:26;;;;;;;25.60;10.18;;;2.90;1.00;;;;;;7366169;19;20038;-71
2023/03/05 05:23:58;;;;;;;30.00;9.95;;;2.90;1.00;;;;;;7366608;19;20014;-71
2023/03/05 05:26:29;;;;;;;22.05;9.50;;;2.90;1.00;;;;;;7365122;19;20065;-71
2023/03/05 05:28:58;;;;;;;27.23;11.30;;;2.90;1.00;;;;;;7393561;19;20018;-71
2023/03/05 05:31:28;;;;;;;27.92;10.45;;;2.90;1.00;;;;;;7393898;19;20014;-72
2023/03/05 05:33:58;;;;;;;30.92;11.77;;;2.90;1.00;;;;;;7394332;19;20031;-71
2023/03/05 05:36:28;;;;;;;24.40;11.10;;;2.90;1.00;;;;;;7394070;19;20474;-71
2023/03/05 05:39:00;;;;;;;25.05;9.85;;;2.90;1.00;;;;;;7392689;19;20015;-71
2023/03/05 05:41:30;;;;;;;23.80;11.45;;;3.00;1.00;;;;;;7392652;19;20014;-71
2023/03/05 05:44:00;;;;;;;31.63;11.75;;;3.00;1.00;;;;;;7394000;19;20014;-71
2023/03/05 05:46:30;;;;;;;30.63;10.52;;;3.00;1.00;;;;;;7393750;19;20025;-71
2023/03/05 05:48:59;;;;;;;25.92;10.43;;;3.00;1.00;;;;;;7390308;19;20044;-72
2023/03/05 05:51:29;;;;;;;30.02;11.05;;;3.00;1.00;;;;;;7392916;19;20102;-72
2023/03/05 05:54:02;;;;;;;25.17;10.13;;;2.90;1.00;;;;;;7393554;19;20018;-71
2023/03/05 05:56:32;;;;;;;25.52;10.70;;;2.90;1.00;;;;;;7393458;19;20018;-72
2023/03/05 05:59:02;;;;;;;23.75;9.82;;;2.90;1.00;;;;;;7391437;19;20372;-71
2023/03/05 06:01:34;;;;;;;28.08;11.07;;;3.00;1.00;;;;;;7393003;19;20078;-71
2023/03/05 06:04:04;;;;;;;24.35;9.75;;;3.00;1.00;;;;;;7393424;19;20046;-72
2023/03/05 06:06:35;;;;;;;24.65;11.25;;;3.00;1.00;;;;;;7393247;19;20035;-71
2023/03/05 06:09:07;;;;;;;27.08;10.75;;;3.00;1.00;;;;;;7390056;19;20019;-71
2023/03/05 06:11:38;;;;;;;27.23;9.50;;;2.90;1.00;;;;;;7393230;19;20086;-71
2023/03/05 06:14:08;;;;;;;29.50;12.20;;;3.00;1.00;;;;;;7392264;19;20042;-72
2023/03/05 06:16:38;;;;;;;25.02;9.70;;;3.00;1.00;;;;;;7391201;19;20014;-71
2023/03/05 06:19:10;;;;;;;23.77;10.63;;;3.00;1.00;;;;;;7390132;19;20018;-72
2023/03/05 06:21:40;;;;;;;27.50;11.48;;;2.90;1.00;;;;;;7392314;19;20077;-71
2023/03/05 06:24:12;;;;;;;26.48;10.65;;;2.90;1.00;;;;;;7390739;19;20011;-71
2023/03/05 06:26:42;;;;;;;23.30;9.57;;;2.90;1.00;;;;;;7353975;19;20014;-71
2023/03/05 06:29:12;;;;;;;26.98;11.40;;;3.00;1.00;;;;;;7384755;19;20010;-71
2023/03/05 06:31:42;;;;;;;27.65;10.90;;;3.00;1.00;;;;;;7374508;19;20094;-72
2023/03/05 06:34:12;;;;;;;25.77;10.00;;;3.00;1.00;;;;;;7377766;19;20481;-71
2023/03/05 06:36:42;;;;;;;27.63;10.98;;;3.00;1.00;;;;;;7393424;19;20015;-71
2023/03/05 06:39:14;;;;;;;27.80;11.15;;;3.00;1.00;;;;;;7366182;19;20048;-71
2023/03/05 06:41:44;;;;;;;26.45;11.18;;;3.00;1.00;;;;;;7363019;19;20068;-71
2023/03/05 06:44:14;;;;;;;25.42;10.65;;;3.00;1.00;;;;;;7364427;19;20030;-71
2023/03/05 06:46:44;;;;;;;27.83;10.63;;;3.00;1.00;;;;;;7364124;19;20010;-71
2023/03/05 06:49:13;;;;;;;29.50;10.20;;;3.10;1.00;;;;;;7360557;19;20025;-70
2023/03/05 06:51:43;;;;;;;26.08;10.90;;;3.10;1.00;;;;;;7384865;19;20022;-70
2023/03/05 06:54:18;;;;;;;23.30;10.05;;;3.10;1.00;;;;;;7362959;19;20011;-71
2023/03/05 06:56:48;;;;;;;;;;;3.10;1.00;;;;;;7364151;19;20498;-70
2023/03/05 06:59:18;;;;;;;24.48;10.48;;;3.00;1.00;;;;;;7359821;19;19939;-71
2023/03/05 07:01:48;;;;;;;25.63;10.25;;;3.00;1.00;;;;;;7363508;19;20014;-71
2023/03/05 07:04:18;;;;;;;29.08;12.00;;;3.00;1.00;;;;;;7362546;19;20027;-71
2023/03/05 07:06:48;;;;;;;29.45;11.10;;;3.00;1.00;;;;;;7384774;19;20006;-70
2023/03/05 07:09:21;;;;;;;26.95;11.07;;;3.00;1.00;;;;;;7359304;19;20044;-70
2023/03/05 07:11:51;;;;;;;26.60;10.73;;;3.00;1.00;;;;;;7362792;19;20546;-70
2023/03/05 07:14:21;;;;;;;27.95;11.48;;;3.00;1.00;;;;;;7363090;19;20018;-70
2023/03/05 07:16:50;;;;;;;25.48;10.07;;;3.10;1.00;;;;;;7362967;19;20011;-70
2023/03/05 07:19:20;;;;;;;28.48;10.93;;;3.10;1.00;;;;;;7360225;19;20007;-70
2023/03/05 07:21:50;;;;;;;28.33;11.00;;;3.10;1.00;;;;;;7385019;19;20428;-70
2023/03/05 07:24:23;;;;;;;26.25;11.75;;;3.20;1.00;;;;;;7364350;19;20018;-70
2023/03/05 07:26:53;;;;;;;29.05;11.20;;;3.10;1.00;;;;;;7365705;19;20013;-70
2023/03/05 07:29:23;;;;;;;27.30;10.63;;;3.20;1.00;;;;;;7389221;19;20014;-70
2023/03/05 07:31:53;;;;;;;27.77;10.38;;;3.20;1.00;;;;;;7390179;19;20486;-70
2023/03/05 07:34:23;;;;;;;22.58;10.18;;;3.20;1.00;;;;;;7389987;19;20049;-71
2023/03/05 07:36:55;;;;;;;25.90;10.40;;;3.30;1.00;;;;;;7390063;19;20470;-71
2023/03/05 07:39:28;;;;;;;22.30;9.65;;;3.20;1.00;;;;;;7387482;19;20013;-72
2023/03/05 07:41:57;;;;;;;24.20;10.75;;;3.30;1.00;;;;;;7388687;19;20010;-70
2023/03/05 07:44:27;;;;;;;24.50;10.50;;;3.30;1.00;;;;;;7390096;19;20011;-72
2023/03/05 07:46:57;;;;;;;30.55;12.27;;;3.30;1.00;;;;;;7390032;19;20014;-70
2023/03/05 07:49:27;;;;;;;25.90;10.57;;;3.30;1.00;;;;;;7385659;19;20019;-70
2023/03/05 07:51:56;;;;;;;25.80;10.88;;;3.40;1.00;;;;;;7387770;19;20025;-70
2023/03/05 07:54:29;;;;;;;27.05;10.95;;;3.40;1.00;;;;;;7389475;19;20014;-70
2023/03/05 07:56:59;;;;;;;24.42;9.98;;;3.30;1.00;;;;;;7389615;19;20042;-71
2023/03/05 07:59:29;;;;;;;26.83;11.13;;;3.30;1.00;;;;;;7386618;19;20014;-71
2023/03/05 08:01:58;;;;;;;26.10;11.57;;;3.30;1.00;;;;;;7389611;19;20010;-71
2023/03/05 08:04:30;;;;;;;22.02;10.63;;;3.30;1.00;;;;;;7389115;19;20010;-71
2023/03/05 08:07:01;;;;;;;26.40;10.60;;;3.30;1.00;;;;;;7389144;19;20006;-71
2023/03/05 08:09:33;;;;;;;28.95;11.77;;;3.40;1.00;;;;;;7386478;19;20014;-72
2023/03/05 08:12:03;;;;;;;26.00;10.73;;;3.30;1.00;;;;;;7388788;19;20018;-70
2023/03/05 08:14:33;;;;;;;25.38;9.77;;;3.20;1.00;;;;;;7389039;19;20042;-71
2023/03/05 08:17:02;;;;;;;20.58;10.10;;;3.30;1.00;;;;;;7388861;19;20427;-70
2023/03/05 08:19:32;;;;;;;28.85;9.88;;;3.20;1.00;;;;;;7385766;19;20029;-72
2023/03/05 08:22:02;;;;;;;23.83;10.45;;;3.20;1.00;;;;;;7386932;19;20347;-70
2023/03/05 08:24:35;;;;;;;25.98;10.75;;;3.20;1.00;;;;;;7388256;19;20493;-71
2023/03/05 08:27:04;;;;;;;26.52;10.55;;;3.30;1.00;;;;;;7388529;19;20074;-71
2023/03/05 08:29:34;;;;;;;27.85;11.38;;;3.20;1.00;;;;;;7347248;19;20011;-71
2023/03/05 08:32:04;;;;;;;24.25;10.02;;;3.20;1.00;;;;;;7387272;19;20018;-71
2023/03/05 08:34:34;;;;;;;25.40;10.70;;;3.30;1.00;;;;;;7360827;19;20022;-71
2023/03/05 08:37:04;;;;;;;24.77;10.50;;;3.40;1.00;;;;;;7361260;19;20018;-71
2023/03/05 08:39:37;;;;;;;29.60;11.43;;;3.40;1.00;;;;;;7378823;19;20542;-71
2023/03/05 08:42:08;;;;;;;27.17;10.68;;;3.40;1.00;;;;;;7359382;19;20010;-71
2023/03/05 08:44:38;;;;;;;28.75;9.93;;;3.40;1.00;;;;;;7359703;19;20021;-71
2023/03/05 08:47:08;;;;;;;27.15;11.75;;;3.40;1.00;;;;;;7359990;19;20010;-73
2023/03/05 08:49:38;;;;;;;28.23;10.95;;;3.40;1.00;;;;;;7357742;19;20010;-72
2023/03/05 08:52:08;;;;;;;27.75;11.60;;;3.40;1.00;;;;;;7367184;19;20017;-71
2023/03/05 08:54:41;;;;;;;25.55;11.20;;;3.40;1.00;;;;;;7388928;19;20018;-72
2023/03/05 08:57:10;;;;;;;27.33;12.20;;;3.40;1.00;;;;;;7368899;19;20062;-71
2023/03/05 08:59:40;;;;;;;26.48;11.85;;;3.50;1.00;;;;;;7363595;19;20021;-70
2023/03/05 09:02:12;;;;;;;33.05;11.98;;;3.40;1.00;;;;;;7367432;19;20014;-72
2023/03/05 09:04:42;;;;;;;24.88;10.95;;;3.40;1.00;;;;;;7366782;19;20028;-72
2023/03/05 09:07:12;;;;;;;32.10;12.52;;;3.60;1.00;;;;;;7365852;19;20052;-72
2023/03/05 09:09:44;;;;;;;28.88;11.63;;;3.70;1.00;;;;;;7384766;19;20006;-71
2023/03/05 09:12:14;;;;;;;23.88;11.98;;;3.60;1.00;;;;;;7366603;19;20483;-70
2023/03/05 09:14:44;;;;;;;29.30;11.93;;;3.70;1.00;;;;;;7365594;19;20091;-72
2023/03/05 09:17:14;;;;;;;26.27;11.98;;;3.80;1.00;;;;;;7371086;19;20019;-72
2023/03/05 09:19:44;;;;;;;29.70;12.77;;;3.80;1.00;;;;;;7365025;19;20367;-71
2023/03/05 09:22:14;;;;;;;27.55;11.00;;;3.70;1.00;;;;;;7367077;19;20423;-71
2023/03/05 09:24:46;;;;;;;28.08;12.00;;;3.80;1.00;;;;;;7388109;19;20354;-71
2023/03/05 09:27:16;;;;;;;34.88;14.70;;;3.80;1.00;;;;;;7370082;19;20010;-71
2023/03/05 09:29:46;;;;;;;31.30;13.45;;;4.00;1.00;;;;;;7368166;19;20017;-71
2023/03/05 09:32:16;;;;;;;33.75;12.50;;;4.10;1.00;;;;;;7393906;19;20396;-71
2023/03/05 09:34:46;;;;;;;29.20;11.88;;;4.00;1.00;;;;;;7395413;19;20014;-71
2023/03/05 09:37:16;;;;;;;28.42;13.13;;;4.10;1.00;;;;;;7403207;19;20078;-71
2023/03/05 09:39:48;;;;;;;27.70;12.45;;;4.10;1.00;;;;;;7391519;19;20389;-71
2023/03/05 09:42:39;;;;;;;24.98;10.90;;;4.10;1.00;;;;;;7394294;19;20067;-71
2023/03/05 09:45:19;;;;;;;27.83;12.52;;;4.00;1.00;;;;;;7394851;19;20018;-71
2023/03/05 09:47:57;;;;;;;28.77;11.65;;;4.10;1.00;;;;;;7393768;19;20355;-71
2023/03/05 09:50:37;;;;;;;28.38;12.45;;;4.10;1.00;;;;;;7390096;19;20018;-71
2023/03/05 09:53:18;;;;;;;31.15;13.48;;;4.20;1.00;;;;;;7393805;19;20015;-72
2023/03/05 09:55:53;;;;;;;31.27;11.85;;;4.20;1.00;;;;;;7394674;19;20021;-71
2023/03/05 09:58:35;;;;;;;28.95;12.75;;;4.20;1.00;;;;;;7343578;19;20024;-72
2023/03/05 10:01:10;;;;;;;29.40;12.27;;;4.00;1.00;;;;;;7366035;19;20035;-70
2023/03/05 10:03:51;;;;;;;29.80;12.65;;;4.00;1.00;;;;;;7364467;19;20011;-71
2023/03/05 10:06:24;;;;;;;27.13;12.20;;;4.00;1.00;;;;;;7366484;19;20074;-71
2023/03/05 10:08:58;;;;;;;29.60;12.68;;;4.10;1.00;;;;;;7363033;19;20011;-71
2023/03/05 10:11:52;;;;;;;24.95;12.90;;;4.20;1.00;;;;;;7362693;19;20026;-71
2023/03/05 10:14:28;;;;;;;27.67;13.43;;;4.20;1.00;;;;;;7391487;19;20092;-71
2023/03/05 10:17:23;;;;;;;33.00;13.25;;;4.30;1.00;;;;;;7409774;19;20031;-70
2023/03/05 10:20:00;;;;;;;;;;;4.30;1.00;;;;;;7374005;19;20053;-70
2023/03/05 10:22:32;;;;;;;26.35;12.23;;;4.40;1.00;;;;;;7368633;19;19915;-71
2023/03/05 10:25:20;;;;;;;29.42;13.05;;;4.40;1.00;;;;;;7364861;19;20226;-71
2023/03/05 10:27:58;;;;;;;29.17;13.80;;;4.40;1.00;;;;;;7364136;19;20027;-71
2023/03/05 10:30:35;;;;;;;28.05;12.77;;;4.50;1.00;;;;;;7363148;19;20038;-71
2023/03/05 10:33:21;;;;;;;28.40;13.13;;;4.50;1.00;;;;;;7365132;19;20090;-72
2023/03/05 10:36:23;;;;;;;33.95;13.63;;;4.60;1.00;;;;;;7363950;19;20017;-72
2023/03/05 10:39:34;;;;;;;30.05;12.75;;;4.40;1.00;;;;;;7364534;19;20026;-71
2023/03/05 10:42:11;;;;;;;26.05;12.13;;;4.30;1.00;;;;;;7361757;19;20014;-71
2023/03/05 10:44:48;;;;;;;30.30;12.77;;;4.50;1.00;;;;;;7364433;19;20515;-71
2023/03/05 10:47:26;;;;;;;32.03;13.38;;;4.70;1.00;;;;;;7364596;19;20011;-71
2023/03/05 10:49:58;;;;;;;29.23;13.63;;;4.70;1.00;;;;;;7381913;19;20539;-71
2023/03/05 10:52:33;;;;;;;29.73;12.88;;;4.50;1.00;;;;;;7360551;19;20115;-71
2023/03/05 10:55:13;;;;;;;28.73;12.88;;;4.80;1.00;;;;;;7362753;19;20035;-70
2023/03/05 10:57:42;;;;;;;26.98;12.85;;;4.60;1.00;;;;;;7364681;19;20015;-71
2023/03/05 11:00:21;;;;;;;26.92;13.00;;;4.60;1.00;;;;;;7385450;19;20510;-71
2023/03/05 11:03:00;;;;;;;32.78;13.65;;;4.70;1.00;;;;;;7391354;19;20441;-71
2023/03/05 11:05:41;;;;;;;27.65;13.20;;;4.70;1.00;;;;;;7357605;19;20035;-72
2023/03/05 11:08:31;;;;;;;27.20;13.00;;;4.70;1.00;;;;;;7384849;19;20483;-72
2023/03/05 11:11:14;;;;;;;26.58;12.98;;;4.70;1.00;;;;;;7361701;19;20029;-71
2023/03/05 11:13:55;;;;;;;25.65;12.50;;;5.00;1.00;;;;;;7362870;19;20024;-71
2023/03/05 11:16:29;;;;;;;23.95;11.68;;;4.90;1.00;;;;;;7361979;19;20011;-72
2023/03/05 11:19:19;;;;;;;26.95;13.63;;;5.10;1.00;;;;;;7386756;19;20018;-73
2023/03/05 11:22:09;;;;;;;28.63;12.32;;;5.10;1.00;;;;;;7364729;19;20011;-72
2023/03/05 11:24:40;;;;;;;27.17;12.15;;;5.10;1.00;;;;;;7366070;19;20017;-71
2023/03/05 11:27:25;;;;;;;25.25;11.63;;;5.10;1.00;;;;;;7363368;19;20035;-72
2023/03/05 11:29:55;;;;;;;25.13;11.75;;;5.10;1.00;;;;;;7363555;19;20552;-71
2023/03/05 11:32:30;;;;;;;22.50;10.48;;;5.20;1.00;;;;;;7360935;19;20568;-71
2023/03/05 11:35:00;;;;;;;26.02;11.98;;;5.10;1.00;;;;;;7361637;19;20038;-71
2023/03/05 11:37:32;;;;;;;22.40;11.43;;;5.30;1.00;;;;;;7360827;19;20017;-71
2023/03/05 11:40:21;;;;;;;24.95;11.88;;;5.40;1.00;;;;;;7379687;19;20011;-72
2023/03/05 11:42:55;;;;;;;22.50;11.48;;;5.10;1.00;;;;;;7360813;19;20356;-71
2023/03/05 11:45:27;;;;;;;22.75;11.68;;;5.00;1.00;;;;;;7361155;19;20074;-72
2023/03/05 11:48:05;;;;;;;30.05;12.77;;;5.00;1.00;;;;;;7361122;19;20106;-72
2023/03/05 11:50:37;;;;;;;27.55;12.45;;;5.20;1.00;;;;;;7359388;19;20410;-72
2023/03/05 11:53:13;;;;;;;25.80;11.90;;;5.20;1.00;;;;;;7360084;19;20029;-72
2023/03/05 11:55:45;;;;;;;27.38;12.32;;;5.20;1.00;;;;;;7361785;19;20467;-72
2023/03/05 11:58:28;;;;;;;24.85;11.27;;;5.10;1.00;;;;;;7360689;19;20078;-71
2023/03/05 12:00:58;;;;;;;21.83;11.15;;;5.10;1.00;;;;;;7380961;19;20014;-71
2023/03/05 12:03:34;;;;;;;25.00;12.18;;;5.10;1.00;;;;;;7360602;19;20015;-70
2023/03/05 12:06:11;;;;;;;28.17;12.18;;;5.20;1.00;;;;;;7363229;19;20057;-71
2023/03/05 12:08:46;;;;;;;22.90;11.98;;;5.30;1.00;;;;;;7415244;19;20011;-71
2023/03/05 12:11:18;;;;;;;;;;;5.30;1.00;;;;;;7398190;19;20583;-73
2023/03/05 12:13:53;;;;;;;24.52;11.20;;;5.30;1.00;;;;;;7345660;19;20304;-70
2023/03/05 12:16:30;;;;;;;21.95;11.30;;;5.10;1.00;;;;;;7384775;19;20015;-72
2023/03/05 12:19:21;;;;;;;23.92;12.20;;;4.90;1.00;;;;;;7360682;19;20014;-72
2023/03/05 12:21:53;;;;;;;23.40;11.82;;;4.80;1.00;;;;;;7359376;19;20475;-71
2023/03/05 12:24:38;;;;;;;25.23;12.38;;;5.10;1.00;;;;;;7381811;19;20613;-72
2023/03/05 12:27:13;;;;;;;27.95;12.57;;;5.40;1.00;;;;;;7356660;19;20010;-72
2023/03/05 12:29:45;;;;;;;;;;;5.20;1.00;;;;;;7360313;19;20107;-72
2023/03/05 12:33:00;;;;;;;24.10;11.52;;;5.30;1.00;;;;;;7358192;19;19919;-71
2023/03/05 12:35:40;;;;;;;24.52;11.38;;;5.40;1.00;;;;;;7359458;19;20025;-71
2023/03/05 12:38:29;;;;;;;21.20;9.85;;;5.10;1.00;;;;;;7358121;19;20078;-72
2023/03/05 12:41:44;;;;;;;21.67;11.25;;;5.10;1.00;;;;;;7359122;19;20014;-73
2023/03/05 12:44:23;;;;;;;21.65;10.70;;;5.10;1.00;;;;;;7360045;19;20014;-71
2023/03/05 12:47:22;;;;;;;23.13;11.25;;;5.10;1.00;;;;;;7360005;19;20019;-71
2023/03/05 12:49:52;;;;;;;21.23;10.57;;;4.90;1.00;;;;;;7357496;19;20015;-71
2023/03/05 12:52:31;;;;;;;19.05;10.27;;;5.10;1.00;;;;;;7359515;19;20011;-71
2023/03/05 12:55:21;;;;;;;19.48;10.25;;;5.20;1.00;;;;;;7359952;19;20634;-72
2023/03/05 12:57:56;;;;;;;28.00;11.25;;;5.30;1.00;;;;;;7358960;19;20078;-71
2023/03/05 13:00:32;;;;;;;23.35;11.50;;;5.30;1.00;;;;;;7377083;19;20486;-72
2023/03/05 13:03:06;;;;;;;19.30;9.85;;;5.20;1.00;;;;;;7358195;19;20011;-71
2023/03/05 13:05:38;;;;;;;20.60;10.88;;;5.00;1.00;;;;;;7358238;19;20018;-71
2023/03/05 13:08:20;;;;;;;20.85;11.00;;;5.00;1.00;;;;;;7358549;19;20014;-72
2023/03/05 13:10:55;;;;;;;19.95;9.90;;;5.00;1.00;;;;;;7358057;19;20014;-72
2023/03/05 13:13:26;;;;;;;;;;;5.00;1.00;;;;;;7360288;19;20021;-72
2023/03/05 13:15:56;;;;;;;19.75;10.05;;;4.90;1.00;;;;;;7386018;19;19925;-72
2023/03/05 13:18:28;;;;;;;18.00;9.40;;;5.00;1.00;;;;;;7383925;19;20067;-72
2023/03/05 13:21:08;;;;;;;22.52;11.93;;;5.00;1.00;;;;;;7383990;19;20011;-72